createdAt,value
2023-02-27T00:02:03.807Z,0.20
2023-02-27T00:04:31.378Z,0.20
2023-02-27T00:06:59.060Z,0.40
2023-02-27T00:09:26.947Z,0.40
2023-02-27T00:11:54.631Z,0.40
2023-02-27T00:14:22.733Z,0.40
2023-02-27T00:16:50.648Z,0.30
2023-02-27T00:19:18.355Z,0.10
2023-02-27T00:21:46.331Z,0.00
2023-02-27T00:24:14.019Z,-0.10
2023-02-27T00:26:41.706Z,-0.20
2023-02-27T00:29:09.474Z,-0.40
2023-02-27T00:31:37.413Z,-0.30
2023-02-27T00:34:05.024Z,-0.40
2023-02-27T00:36:32.656Z,-0.40
2023-02-27T00:39:00.385Z,-0.40
2023-02-27T00:41:28.350Z,-0.40
2023-02-27T00:43:56.116Z,-0.30
2023-02-27T00:46:23.783Z,-0.10
2023-02-27T00:48:52.157Z,0.00
2023-02-27T00:51:20.381Z,0.00
2023-02-27T00:53:48.025Z,-0.20
2023-02-27T00:56:15.859Z,-0.20
2023-02-27T00:58:43.401Z,-0.10
2023-02-27T01:01:11.650Z,-0.10
2023-02-27T01:03:39.288Z,-0.20
2023-02-27T01:06:07.093Z,-0.10
2023-02-27T01:08:35.063Z,-0.10
2023-02-27T01:11:05.958Z,-0.10
2023-02-27T01:13:33.636Z,-0.10
2023-02-27T01:16:01.273Z,0.00
2023-02-27T01:18:29.885Z,0.00
2023-02-27T01:20:57.604Z,0.00
2023-02-27T01:23:25.506Z,0.00
2023-02-27T01:25:53.091Z,-0.20
2023-02-27T01:28:21.521Z,-0.20
2023-02-27T01:30:49.412Z,-0.40
2023-02-27T01:33:17.340Z,-0.40
2023-02-27T01:35:46.069Z,-0.50
2023-02-27T01:38:13.726Z,-0.50
2023-02-27T01:40:42.722Z,-0.50
2023-02-27T01:43:17.982Z,-0.50
2023-02-27T01:45:49.978Z,-0.40
2023-02-27T01:48:26.420Z,-0.30
2023-02-27T01:50:59.123Z,-0.50
2023-02-27T01:53:28.833Z,-0.60
2023-02-27T01:56:03.781Z,-0.60
2023-02-27T01:58:32.081Z,-0.50
2023-02-27T02:01:00.206Z,-0.60
2023-02-27T02:03:48.762Z,-0.70
2023-02-27T02:06:16.731Z,-0.60
2023-02-27T02:08:51.235Z,-0.80
2023-02-27T02:11:22.401Z,-0.60
2023-02-27T02:13:55.799Z,-0.70
2023-02-27T02:16:26.209Z,-0.50
2023-02-27T02:19:05.831Z,-0.70
2023-02-27T02:21:51.774Z,-0.70
2023-02-27T02:24:33.383Z,-0.70
2023-02-27T02:27:00.934Z,-0.50
2023-02-27T02:29:53.611Z,-0.50
2023-02-27T02:32:50.839Z,-0.60
2023-02-27T02:35:30.817Z,-0.50
2023-02-27T02:38:19.620Z,-0.50
2023-02-27T02:40:50.346Z,-0.40
2023-02-27T02:43:38.457Z,-0.30
2023-02-27T02:46:25.892Z,-0.50
2023-02-27T02:49:03.452Z,-0.50
2023-02-27T02:51:44.505Z,-0.40
2023-02-27T02:54:19.609Z,-0.40
2023-02-27T02:57:05.527Z,-0.50
2023-02-27T02:59:44.646Z,-0.50
2023-02-27T03:02:18.227Z,-0.50
2023-02-27T03:04:58.649Z,-0.50
2023-02-27T03:07:52.153Z,-0.40
2023-02-27T03:10:40.843Z,-0.60
2023-02-27T03:13:21.964Z,-0.50
2023-02-27T03:16:06.523Z,-0.40
2023-02-27T03:18:45.526Z,-0.40
2023-02-27T03:21:24.297Z,-0.40
2023-02-27T03:23:56.167Z,-0.50
2023-02-27T03:26:31.445Z,-0.50
2023-02-27T03:29:07.088Z,-0.50
2023-02-27T03:31:44.656Z,-0.70
2023-02-27T03:34:24.333Z,-0.70
2023-02-27T03:37:22.342Z,-0.50
2023-02-27T03:39:52.436Z,-0.50
2023-02-27T03:42:41.800Z,-0.50
2023-02-27T03:46:08.728Z,-0.50
2023-02-27T03:48:36.970Z,-0.50
2023-02-27T03:51:04.881Z,-0.40
2023-02-27T03:53:59.757Z,-0.50
2023-02-27T03:56:50.458Z,-0.60
2023-02-27T03:59:18.630Z,-0.60
2023-02-27T04:01:52.398Z,-0.60
2023-02-27T04:04:20.313Z,-0.50
2023-02-27T04:07:23.442Z,-0.50
2023-02-27T04:10:17.672Z,-0.60
2023-02-27T04:13:10.614Z,-0.50
2023-02-27T04:16:00.823Z,-0.60
2023-02-27T04:18:34.532Z,-0.70
2023-02-27T04:21:17.217Z,-0.70
2023-02-27T04:24:06.323Z,-0.70
2023-02-27T04:26:43.910Z,-0.60
2023-02-27T04:29:48.129Z,-0.70
2023-02-27T04:32:37.965Z,-0.70
2023-02-27T04:35:33.580Z,-0.70
2023-02-27T04:38:19.918Z,-0.80
2023-02-27T04:40:56.541Z,-0.80
2023-02-27T04:43:26.336Z,-0.90
2023-02-27T04:45:56.834Z,-0.80
2023-02-27T04:48:35.923Z,-0.90
2023-02-27T04:51:18.302Z,-0.90
2023-02-27T04:53:52.632Z,-1.00
2023-02-27T04:56:29.822Z,-0.90
2023-02-27T04:59:05.635Z,-1.10
2023-02-27T05:01:41.113Z,-1.00
2023-02-27T05:04:14.364Z,-0.90
2023-02-27T05:06:45.993Z,-0.90
2023-02-27T05:09:40.755Z,-0.90
2023-02-27T05:12:23.066Z,-1.00
2023-02-27T05:14:56.423Z,-1.10
2023-02-27T05:17:47.258Z,-1.10
2023-02-27T05:20:16.597Z,-1.00
2023-02-27T05:23:21.305Z,-0.90
2023-02-27T05:26:18.584Z,-0.90
2023-02-27T05:28:54.322Z,-0.90
2023-02-27T05:31:49.169Z,-1.00
2023-02-27T05:34:28.584Z,-1.10
2023-02-27T05:37:19.876Z,-1.00
2023-02-27T05:39:50.858Z,-1.10
2023-02-27T05:42:41.675Z,-1.30
2023-02-27T05:45:20.816Z,-1.20
2023-02-27T05:47:57.450Z,-1.00
2023-02-27T05:50:32.349Z,-1.00
2023-02-27T05:53:04.508Z,-1.00
2023-02-27T05:55:47.646Z,-1.10
2023-02-27T05:58:24.701Z,-1.00
2023-02-27T06:00:59.504Z,-1.10
2023-02-27T06:03:29.626Z,-1.00
2023-02-27T06:05:59.731Z,-1.10
2023-02-27T06:08:28.142Z,-1.20
2023-02-27T06:10:56.279Z,-0.90
2023-02-27T06:13:24.586Z,-1.00
2023-02-27T06:15:52.632Z,-0.80
2023-02-27T06:18:20.444Z,-0.80
2023-02-27T06:20:48.724Z,-0.80
2023-02-27T06:23:16.522Z,-0.80
2023-02-27T06:25:44.359Z,-0.80
2023-02-27T06:28:12.100Z,-0.70
2023-02-27T06:30:39.764Z,-0.60
2023-02-27T06:33:07.437Z,-0.60
2023-02-27T06:35:35.273Z,-0.50
2023-02-27T06:38:03.103Z,-0.50
2023-02-27T06:40:30.940Z,-0.50
2023-02-27T06:42:58.872Z,-0.40
2023-02-27T06:45:26.768Z,-0.40
2023-02-27T06:47:54.371Z,-0.30
2023-02-27T06:50:22.002Z,-0.20
2023-02-27T06:52:49.730Z,-0.10
2023-02-27T06:55:20.681Z,0.00
2023-02-27T06:57:49.472Z,0.10
2023-02-27T07:00:18.212Z,0.10
2023-02-27T07:02:45.932Z,0.00
2023-02-27T07:05:13.475Z,-0.10
2023-02-27T07:07:41.312Z,-0.20
2023-02-27T07:10:12.550Z,0.10
2023-02-27T07:12:40.922Z,0.20
2023-02-27T07:15:09.830Z,0.30
2023-02-27T07:17:38.000Z,0.30
2023-02-27T07:20:08.259Z,0.20
2023-02-27T07:22:36.574Z,0.20
2023-02-27T07:25:04.863Z,0.30
2023-02-27T07:27:32.619Z,0.50
2023-02-27T07:30:01.256Z,0.50
2023-02-27T07:32:28.924Z,0.50
2023-02-27T07:34:56.587Z,0.50
2023-02-27T07:37:25.197Z,0.60
2023-02-27T07:39:53.992Z,0.50
2023-02-27T07:42:21.661Z,0.40
2023-02-27T07:44:49.208Z,0.40
2023-02-27T07:47:18.212Z,0.50
2023-02-27T07:49:46.064Z,0.50
2023-02-27T07:52:13.625Z,0.60
2023-02-27T07:54:41.245Z,0.60
2023-02-27T07:57:08.980Z,0.50
2023-02-27T07:59:36.541Z,0.60
2023-02-27T08:02:04.227Z,0.50
2023-02-27T08:04:31.874Z,0.50
2023-02-27T08:07:00.045Z,0.80
2023-02-27T08:09:27.651Z,0.70
2023-02-27T08:11:55.235Z,0.70
2023-02-27T08:14:23.464Z,0.80
2023-02-27T08:16:51.396Z,0.90
2023-02-27T08:19:19.047Z,0.90
2023-02-27T08:21:46.691Z,1.10
2023-02-27T08:24:14.255Z,1.20
2023-02-27T08:26:41.922Z,1.20
2023-02-27T08:29:09.666Z,1.30
2023-02-27T08:31:37.406Z,1.40
2023-02-27T08:34:10.273Z,1.30
2023-02-27T08:36:39.129Z,1.40
2023-02-27T08:39:08.732Z,1.50
2023-02-27T08:41:36.788Z,1.70
2023-02-27T08:44:05.063Z,1.60
2023-02-27T08:46:33.180Z,1.70
2023-02-27T08:49:00.759Z,1.80
2023-02-27T08:51:28.838Z,1.90
2023-02-27T08:53:59.209Z,1.80
2023-02-27T08:56:27.676Z,2.00
2023-02-27T08:58:56.176Z,2.20
2023-02-27T09:01:26.208Z,2.00
2023-02-27T09:03:54.323Z,2.10
2023-02-27T09:06:22.888Z,2.20
2023-02-27T09:08:51.561Z,2.10
2023-02-27T09:11:19.295Z,2.40
2023-02-27T09:13:47.402Z,1.90
2023-02-27T09:16:15.065Z,2.10
2023-02-27T09:18:42.765Z,2.40
2023-02-27T09:21:10.492Z,2.60
2023-02-27T09:23:38.152Z,2.60
2023-02-27T09:26:06.948Z,2.70
2023-02-27T09:28:35.271Z,2.80
2023-02-27T09:31:06.096Z,2.70
2023-02-27T09:33:36.063Z,2.60
2023-02-27T09:36:05.746Z,2.60
2023-02-27T09:38:35.086Z,2.70
2023-02-27T09:41:04.344Z,2.60
2023-02-27T09:43:45.950Z,2.80
2023-02-27T09:46:25.797Z,2.90
2023-02-27T09:49:04.882Z,3.00
2023-02-27T09:51:32.538Z,2.90
2023-02-27T09:54:02.074Z,2.90
2023-02-27T09:56:31.106Z,2.90
2023-02-27T09:59:05.667Z,2.90
2023-02-27T10:01:54.298Z,3.00
2023-02-27T10:04:30.895Z,2.90
2023-02-27T10:07:20.326Z,3.10
2023-02-27T10:10:11.480Z,2.90
2023-02-27T10:13:00.837Z,3.10
2023-02-27T10:15:35.336Z,2.80
2023-02-27T10:18:27.018Z,3.10
2023-02-27T10:21:15.751Z,2.90
2023-02-27T10:23:58.078Z,2.80
2023-02-27T10:26:30.314Z,2.60
2023-02-27T10:29:02.624Z,2.90
2023-02-27T10:31:33.840Z,3.00
2023-02-27T10:34:02.329Z,2.90
2023-02-27T10:36:34.350Z,2.90
2023-02-27T10:39:06.949Z,3.10
2023-02-27T10:41:36.272Z,2.80
2023-02-27T10:44:05.063Z,2.80
2023-02-27T10:46:38.285Z,3.00
2023-02-27T10:49:20.822Z,3.00
2023-02-27T10:52:05.367Z,3.00
2023-02-27T10:54:33.227Z,2.80
2023-02-27T10:57:03.140Z,2.90
2023-02-27T10:59:37.278Z,3.10
2023-02-27T11:02:23.963Z,3.00
2023-02-27T11:04:57.131Z,3.20
2023-02-27T11:07:33.329Z,3.20
2023-02-27T11:10:02.642Z,3.00
2023-02-27T11:12:34.625Z,2.90
2023-02-27T11:15:17.171Z,2.90
2023-02-27T11:17:45.978Z,3.20
2023-02-27T11:20:32.392Z,3.10
2023-02-27T11:23:26.303Z,3.30
2023-02-27T11:26:15.263Z,3.20
2023-02-27T11:28:43.252Z,3.00
2023-02-27T11:31:22.302Z,3.20
2023-02-27T11:33:59.012Z,3.30
2023-02-27T11:36:47.601Z,3.00
2023-02-27T11:40:00.565Z,3.30
2023-02-27T11:42:34.576Z,3.50
2023-02-27T11:45:06.776Z,3.60
2023-02-27T11:47:39.844Z,3.40
2023-02-27T11:50:41.853Z,3.40
2023-02-27T11:54:03.268Z,3.60
2023-02-27T11:56:57.720Z,3.80
2023-02-27T11:59:52.182Z,3.90
2023-02-27T12:02:50.834Z,3.80
2023-02-27T12:05:21.184Z,3.60
2023-02-27T12:08:15.875Z,3.80
2023-02-27T12:10:55.597Z,3.60
2023-02-27T12:13:31.716Z,3.70
2023-02-27T12:16:08.451Z,3.70
2023-02-27T12:18:51.767Z,3.70
2023-02-27T12:21:33.337Z,3.60
2023-02-27T12:24:16.603Z,3.60
2023-02-27T12:26:46.798Z,3.50
2023-02-27T12:29:14.444Z,3.50
2023-02-27T12:32:19.916Z,3.60
2023-02-27T12:35:25.466Z,3.80
2023-02-27T12:37:53.554Z,3.90
2023-02-27T12:40:37.303Z,4.00
2023-02-27T12:43:56.642Z,3.90
2023-02-27T12:47:10.299Z,3.90
2023-02-27T12:49:51.665Z,3.60
2023-02-27T12:52:34.431Z,3.90
2023-02-27T12:55:17.186Z,4.00
2023-02-27T12:58:04.154Z,4.10
2023-02-27T13:00:38.012Z,3.90
2023-02-27T13:03:20.717Z,3.70
2023-02-27T13:05:53.207Z,3.90
2023-02-27T13:09:11.779Z,4.00
2023-02-27T13:11:58.414Z,4.10
2023-02-27T13:14:35.106Z,4.00
2023-02-27T13:17:11.969Z,4.10
2023-02-27T13:19:57.848Z,3.90
2023-02-27T13:22:28.477Z,3.90
2023-02-27T13:24:59.327Z,3.90
2023-02-27T13:27:33.239Z,4.00
2023-02-27T13:30:03.988Z,3.90
2023-02-27T13:33:10.945Z,3.90
2023-02-27T13:36:06.258Z,3.90
2023-02-27T13:38:47.621Z,4.10
2023-02-27T13:41:21.487Z,4.10
2023-02-27T13:43:57.400Z,4.30
2023-02-27T13:46:29.536Z,4.10
2023-02-27T13:49:03.140Z,4.00
2023-02-27T13:51:40.202Z,4.10
2023-02-27T13:54:29.885Z,4.30
2023-02-27T13:57:32.845Z,4.10
2023-02-27T14:00:26.599Z,4.20
2023-02-27T14:03:00.323Z,4.20
2023-02-27T14:05:40.122Z,4.40
2023-02-27T14:08:21.410Z,4.30
2023-02-27T14:11:23.698Z,4.20
2023-02-27T14:13:51.303Z,4.20
2023-02-27T14:16:54.874Z,4.30
2023-02-27T14:19:22.770Z,4.20
2023-02-27T14:22:01.587Z,4.20
2023-02-27T14:24:49.614Z,4.20
2023-02-27T14:27:30.524Z,4.10
2023-02-27T14:30:04.691Z,4.20
2023-02-27T14:32:35.506Z,4.30
2023-02-27T14:35:06.139Z,4.40
2023-02-27T14:37:36.471Z,4.30
2023-02-27T14:40:06.602Z,4.20
2023-02-27T14:42:54.854Z,4.00
2023-02-27T14:45:25.155Z,3.80
2023-02-27T14:47:53.523Z,3.90
2023-02-27T14:50:35.475Z,3.90
2023-02-27T14:53:05.550Z,4.00
2023-02-27T14:55:37.729Z,4.10
2023-02-27T14:58:14.258Z,4.10
2023-02-27T15:00:53.733Z,4.10
2023-02-27T15:03:24.723Z,3.90
2023-02-27T15:05:55.063Z,3.70
2023-02-27T15:08:26.467Z,3.70
2023-02-27T15:10:56.936Z,3.90
2023-02-27T15:13:28.316Z,3.90
2023-02-27T15:16:18.954Z,3.80
2023-02-27T15:18:55.862Z,4.00
2023-02-27T15:21:26.441Z,4.00
2023-02-27T15:24:02.292Z,4.00
2023-02-27T15:26:35.164Z,3.80
2023-02-27T15:29:05.249Z,3.80
2023-02-27T15:31:33.132Z,3.80
2023-02-27T15:34:02.306Z,3.80
2023-02-27T15:36:35.683Z,3.70
2023-02-27T15:39:06.329Z,3.70
2023-02-27T15:41:34.899Z,3.70
2023-02-27T15:44:03.584Z,3.70
2023-02-27T15:46:32.280Z,3.50
2023-02-27T15:49:00.467Z,3.60
2023-02-27T15:51:29.446Z,3.60
2023-02-27T15:54:00.124Z,3.50
2023-02-27T15:56:37.572Z,3.60
2023-02-27T15:59:05.743Z,3.50
2023-02-27T16:01:37.216Z,3.50
2023-02-27T16:04:14.770Z,3.50
2023-02-27T16:06:50.142Z,3.50
2023-02-27T16:09:35.162Z,3.40
2023-02-27T16:12:12.086Z,3.50
2023-02-27T16:14:44.934Z,3.50
2023-02-27T16:17:29.188Z,3.30
2023-02-27T16:19:59.231Z,3.20
2023-02-27T16:22:30.495Z,3.30
2023-02-27T16:25:10.463Z,3.20
2023-02-27T16:27:39.783Z,2.80
2023-02-27T16:30:11.712Z,2.50
2023-02-27T16:32:46.833Z,2.20
2023-02-27T16:35:21.195Z,2.00
2023-02-27T16:37:50.609Z,1.90
2023-02-27T16:40:26.545Z,1.90
2023-02-27T16:42:54.451Z,1.90
2023-02-27T16:45:26.984Z,2.20
2023-02-27T16:47:57.002Z,2.00
2023-02-27T16:50:28.705Z,1.70
2023-02-27T16:52:58.153Z,1.50
2023-02-27T16:55:27.827Z,1.40
2023-02-27T16:57:56.202Z,1.40
2023-02-27T17:00:24.215Z,1.30
2023-02-27T17:02:52.493Z,1.20
2023-02-27T17:05:21.452Z,1.10
2023-02-27T17:07:49.894Z,1.10
2023-02-27T17:10:21.176Z,1.00
2023-02-27T17:12:48.962Z,1.00
2023-02-27T17:15:17.986Z,0.90
2023-02-27T17:17:47.008Z,0.90
2023-02-27T17:20:16.783Z,0.80
2023-02-27T17:22:47.453Z,0.90
2023-02-27T17:25:17.242Z,0.70
2023-02-27T17:27:45.385Z,0.80
2023-02-27T17:30:15.585Z,0.70
2023-02-27T17:32:43.884Z,0.80
2023-02-27T17:35:13.451Z,0.70
2023-02-27T17:37:41.780Z,0.70
2023-02-27T17:40:13.095Z,0.70
2023-02-27T17:42:42.105Z,0.60
2023-02-27T17:45:11.907Z,0.70
2023-02-27T17:47:40.835Z,0.50
2023-02-27T17:50:10.195Z,0.50
2023-02-27T17:52:38.560Z,0.40
2023-02-27T17:55:09.340Z,0.40
2023-02-27T17:57:39.212Z,0.30
2023-02-27T18:00:10.500Z,0.30
2023-02-27T18:02:39.311Z,0.30
2023-02-27T18:05:13.042Z,0.40
2023-02-27T18:07:42.612Z,0.30
2023-02-27T18:10:17.612Z,0.30
2023-02-27T18:12:47.679Z,0.30
2023-02-27T18:15:16.553Z,0.30
2023-02-27T18:17:45.937Z,0.40
2023-02-27T18:20:15.026Z,0.20
2023-02-27T18:22:44.260Z,0.10
2023-02-27T18:25:16.377Z,0.40
2023-02-27T18:27:45.762Z,0.40
2023-02-27T18:30:15.939Z,0.20
2023-02-27T18:32:46.257Z,0.20
2023-02-27T18:35:17.402Z,0.30
2023-02-27T18:37:46.160Z,0.30
2023-02-27T18:40:15.838Z,0.50
2023-02-27T18:42:48.369Z,0.50
2023-02-27T18:45:17.245Z,0.30
2023-02-27T18:47:46.663Z,0.20
2023-02-27T18:50:16.559Z,0.10
2023-02-27T18:52:47.746Z,0.30
2023-02-27T18:55:18.399Z,0.50
2023-02-27T18:57:48.681Z,0.50
2023-02-27T19:00:19.729Z,0.60
2023-02-27T19:02:49.542Z,0.60
2023-02-27T19:05:20.190Z,0.60
2023-02-27T19:07:49.730Z,0.10
2023-02-27T19:10:21.611Z,0.30
2023-02-27T19:12:51.724Z,0.30
2023-02-27T19:15:20.920Z,0.10
2023-02-27T19:17:53.092Z,0.00
2023-02-27T19:20:22.698Z,0.00
2023-02-27T19:22:51.865Z,-0.20
2023-02-27T19:25:22.264Z,-0.10
2023-02-27T19:27:57.284Z,-0.30
2023-02-27T19:30:27.092Z,-0.40
2023-02-27T19:32:56.498Z,-0.30
2023-02-27T19:35:26.590Z,-0.50
2023-02-27T19:37:59.458Z,-0.50
2023-02-27T19:40:29.039Z,-0.60
2023-02-27T19:43:00.158Z,-0.50
2023-02-27T19:45:31.546Z,-0.40
2023-02-27T19:48:04.886Z,-0.30
2023-02-27T19:50:35.664Z,-0.40
2023-02-27T19:53:05.987Z,-0.70
2023-02-27T19:55:36.072Z,-0.60
2023-02-27T19:58:05.564Z,-0.40
2023-02-27T20:00:39.244Z,-0.40
2023-02-27T20:03:08.258Z,-0.50
2023-02-27T20:05:41.231Z,-0.50
2023-02-27T20:08:10.467Z,-0.50
2023-02-27T20:10:39.685Z,-0.50
2023-02-27T20:13:14.704Z,-0.60
2023-02-27T20:15:44.190Z,-0.60
2023-02-27T20:18:13.720Z,-0.70
2023-02-27T20:20:44.947Z,-0.70
2023-02-27T20:23:16.228Z,-0.70
2023-02-27T20:25:45.622Z,-0.70
2023-02-27T20:28:16.620Z,-0.80
2023-02-27T20:30:50.461Z,-0.80
2023-02-27T20:33:20.945Z,-0.90
2023-02-27T20:35:49.668Z,-0.80
2023-02-27T20:38:20.039Z,-0.90
2023-02-27T20:40:49.700Z,-0.90
2023-02-27T20:43:19.037Z,-1.10
2023-02-27T20:45:48.933Z,-0.90
2023-02-27T20:48:19.588Z,-0.80
2023-02-27T20:50:48.368Z,-0.90
2023-02-27T20:53:17.386Z,-0.90
2023-02-27T20:55:51.353Z,-0.80
2023-02-27T20:58:20.174Z,-1.00
2023-02-27T21:00:48.346Z,-1.00
2023-02-27T21:03:17.829Z,-1.00
2023-02-27T21:05:50.217Z,-1.10
2023-02-27T21:08:21.533Z,-1.00
2023-02-27T21:10:52.152Z,-1.10
2023-02-27T21:13:20.581Z,-1.00
2023-02-27T21:15:49.135Z,-1.10
2023-02-27T21:18:17.034Z,-1.20
2023-02-27T21:20:46.027Z,-1.30
2023-02-27T21:23:14.056Z,-1.30
2023-02-27T21:25:43.489Z,-1.20
2023-02-27T21:28:15.080Z,-1.20
2023-02-27T21:30:42.929Z,-1.20
2023-02-27T21:33:10.639Z,-1.30
2023-02-27T21:35:38.432Z,-1.20
2023-02-27T21:38:06.338Z,-1.30
2023-02-27T21:40:34.091Z,-1.20
2023-02-27T21:43:01.758Z,-1.30
2023-02-27T21:45:29.405Z,-1.40
2023-02-27T21:47:56.996Z,-1.30
2023-02-27T21:50:24.736Z,-1.40
2023-02-27T21:52:52.322Z,-1.30
2023-02-27T21:55:20.252Z,-1.20
2023-02-27T21:57:47.812Z,-1.00
2023-02-27T22:00:16.443Z,-1.00
2023-02-27T22:02:43.949Z,-1.10
2023-02-27T22:05:11.760Z,-1.10
2023-02-27T22:07:39.692Z,-1.10
2023-02-27T22:10:08.257Z,-1.30
2023-02-27T22:12:36.921Z,-1.40
2023-02-27T22:15:05.653Z,-1.40
2023-02-27T22:17:33.246Z,-1.30
2023-02-27T22:20:00.812Z,-1.40
2023-02-27T22:22:28.665Z,-1.50
2023-02-27T22:24:56.362Z,-1.50
2023-02-27T22:27:23.974Z,-1.50
2023-02-27T22:29:51.738Z,-1.50
2023-02-27T22:32:19.731Z,-1.40
2023-02-27T22:34:47.332Z,-1.50
2023-02-27T22:37:16.237Z,-1.50
2023-02-27T22:39:44.644Z,-1.50
2023-02-27T22:42:12.382Z,-1.60
2023-02-27T22:44:40.040Z,-1.70
2023-02-27T22:47:07.660Z,-1.70
2023-02-27T22:49:37.167Z,-1.50
2023-02-27T22:52:05.382Z,-1.40
2023-02-27T22:54:33.047Z,-1.50
2023-02-27T22:57:01.056Z,-1.60
2023-02-27T22:59:29.258Z,-1.70
2023-02-27T23:01:57.073Z,-1.70
2023-02-27T23:04:24.978Z,-1.50
2023-02-27T23:06:54.915Z,-1.50
2023-02-27T23:09:26.264Z,-1.40
2023-02-27T23:11:54.579Z,-1.30
2023-02-27T23:14:22.608Z,-1.40
2023-02-27T23:16:51.685Z,-1.30
2023-02-27T23:19:22.312Z,-1.40
2023-02-27T23:21:50.157Z,-1.40
2023-02-27T23:24:19.147Z,-1.40
2023-02-27T23:26:49.772Z,-1.40
2023-02-27T23:29:18.557Z,-1.50
2023-02-27T23:31:46.289Z,-1.50
2023-02-27T23:34:14.069Z,-1.50
2023-02-27T23:36:42.998Z,-1.30
2023-02-27T23:39:10.828Z,-1.40
2023-02-27T23:41:38.428Z,-1.40
2023-02-27T23:44:06.218Z,-1.30
2023-02-27T23:46:33.860Z,-1.40
2023-02-27T23:49:02.044Z,-1.40
2023-02-27T23:51:30.900Z,-1.30
2023-02-27T23:53:59.404Z,-1.30
2023-02-27T23:56:29.227Z,-1.30
2023-02-27T23:59:02.155Z,-1.20
